createdAt,value
2023-01-03T00:01:32.644Z,61.26
2023-01-03T00:04:01.246Z,60.81
2023-01-03T00:06:37.108Z,61.10
2023-01-03T00:09:06.650Z,60.26
2023-01-03T00:11:52.882Z,59.59
2023-01-03T00:14:24.486Z,60.19
2023-01-03T00:16:54.364Z,60.49
2023-01-03T00:19:22.902Z,60.85
2023-01-03T00:21:50.166Z,61.25
2023-01-03T00:24:17.570Z,60.46
2023-01-03T00:26:45.638Z,63.38
2023-01-03T00:29:12.759Z,63.06
2023-01-03T00:31:40.527Z,62.79
2023-01-03T00:34:08.386Z,65.67
2023-01-03T00:36:36.759Z,65.49
2023-01-03T00:39:05.351Z,64.21
2023-01-03T00:41:32.880Z,62.98
2023-01-03T00:44:00.459Z,63.24
2023-01-03T00:46:27.544Z,64.75
2023-01-03T00:48:54.558Z,63.10
2023-01-03T00:51:24.811Z,61.58
2023-01-03T00:53:56.170Z,60.78
2023-01-03T00:56:25.578Z,60.75
2023-01-03T00:58:53.591Z,63.48
2023-01-03T01:01:31.850Z,63.20
2023-01-03T01:04:04.534Z,62.33
2023-01-03T01:06:35.641Z,61.28
2023-01-03T01:09:05.186Z,60.91
2023-01-03T01:11:32.856Z,62.84
2023-01-03T01:13:59.850Z,63.80
2023-01-03T01:16:30.265Z,62.95
2023-01-03T01:19:00.280Z,62.60
2023-01-03T01:21:30.129Z,62.20
2023-01-03T01:23:59.637Z,61.52
2023-01-03T01:26:27.303Z,62.50
2023-01-03T01:28:55.365Z,62.34
2023-01-03T01:31:26.898Z,62.94
2023-01-03T01:33:55.878Z,63.93
2023-01-03T01:36:28.966Z,64.25
2023-01-03T01:38:58.925Z,63.95
2023-01-03T01:41:46.935Z,64.39
2023-01-03T01:44:38.243Z,63.72
2023-01-03T01:47:19.052Z,63.96
2023-01-03T01:49:48.478Z,63.30
2023-01-03T01:52:18.621Z,62.01
2023-01-03T01:54:47.755Z,62.36
2023-01-03T01:57:20.039Z,63.35
2023-01-03T01:59:47.576Z,62.86
2023-01-03T02:02:19.483Z,62.33
2023-01-03T02:04:49.256Z,62.05
2023-01-03T02:07:18.562Z,62.83
2023-01-03T02:09:47.607Z,63.30
2023-01-03T02:13:06.645Z,64.60
2023-01-03T02:15:36.424Z,64.50
2023-01-03T02:18:06.464Z,65.28
2023-01-03T02:21:04.122Z,65.30
2023-01-03T02:23:30.885Z,64.77
2023-01-03T02:26:19.297Z,65.12
2023-01-03T02:28:58.386Z,66.07
2023-01-03T02:31:34.163Z,65.77
2023-01-03T02:34:07.519Z,66.33
2023-01-03T02:36:52.235Z,65.88
2023-01-03T02:39:45.346Z,66.59
2023-01-03T02:42:41.470Z,69.06
2023-01-03T02:45:14.624Z,69.57
2023-01-03T02:47:58.005Z,70.18
2023-01-03T02:50:31.504Z,70.55
2023-01-03T02:53:03.853Z,69.86
2023-01-03T02:55:32.974Z,68.84
2023-01-03T02:58:12.297Z,68.28
2023-01-03T03:00:46.005Z,68.67
2023-01-03T03:03:17.100Z,67.62
2023-01-03T03:05:56.885Z,67.96
2023-01-03T03:08:23.856Z,67.98
2023-01-03T03:11:11.799Z,69.04
2023-01-03T03:13:55.549Z,68.68
2023-01-03T03:16:47.943Z,69.57
2023-01-03T03:19:44.972Z,70.13
2023-01-03T03:22:51.839Z,68.88
2023-01-03T03:25:26.305Z,69.66
2023-01-03T03:28:18.250Z,70.19
2023-01-03T03:30:48.748Z,70.74
2023-01-03T03:33:18.385Z,70.32
2023-01-03T03:35:55.341Z,71.42
2023-01-03T03:38:44.011Z,70.94
2023-01-03T03:42:06.000Z,71.71
2023-01-03T03:45:00.947Z,72.11
2023-01-03T03:48:01.009Z,72.80
2023-01-03T03:50:33.036Z,73.31
2023-01-03T03:53:05.037Z,73.64
2023-01-03T03:55:40.820Z,74.00
2023-01-03T03:58:36.852Z,74.45
2023-01-03T04:01:05.038Z,74.78
2023-01-03T04:03:34.149Z,73.80
2023-01-03T04:06:09.132Z,72.83
2023-01-03T04:08:36.995Z,72.97
2023-01-03T04:11:07.337Z,74.09
2023-01-03T04:13:36.433Z,73.43
2023-01-03T04:16:04.794Z,73.41
2023-01-03T04:18:31.907Z,73.17
2023-01-03T04:20:59.007Z,73.59
2023-01-03T04:23:26.181Z,73.14
2023-01-03T04:25:53.207Z,72.32
2023-01-03T04:28:20.521Z,72.67
2023-01-03T04:30:47.844Z,71.85
2023-01-03T04:33:14.738Z,71.76
2023-01-03T04:35:41.736Z,70.77
2023-01-03T04:38:09.583Z,69.62
2023-01-03T04:40:38.843Z,69.15
2023-01-03T04:43:24.371Z,68.31
2023-01-03T04:45:51.953Z,68.82
2023-01-03T04:48:19.274Z,68.87
2023-01-03T04:50:53.960Z,69.88
2023-01-03T04:53:21.501Z,70.51
2023-01-03T04:55:50.302Z,70.84
2023-01-03T04:58:17.669Z,71.15
2023-01-03T05:00:44.617Z,71.08
2023-01-03T05:03:11.787Z,70.70
2023-01-03T05:05:39.493Z,70.09
2023-01-03T05:08:12.109Z,70.28
2023-01-03T05:10:40.117Z,70.44
2023-01-03T05:13:07.588Z,70.45
2023-01-03T05:15:39.381Z,69.48
2023-01-03T05:18:06.569Z,67.24
2023-01-03T05:20:55.808Z,65.79
2023-01-03T05:23:42.186Z,64.25
2023-01-03T05:26:14.842Z,63.36
2023-01-03T05:28:45.036Z,63.05
2023-01-03T05:31:12.400Z,64.45
2023-01-03T05:33:40.253Z,66.86
2023-01-03T05:36:09.113Z,67.71
2023-01-03T05:38:37.547Z,67.09
2023-01-03T05:41:05.243Z,67.24
2023-01-03T05:43:32.641Z,67.87
2023-01-03T05:45:59.685Z,67.94
2023-01-03T05:48:27.220Z,68.13
2023-01-03T05:50:57.677Z,68.10
2023-01-03T05:53:25.506Z,67.42
2023-01-03T05:55:52.931Z,66.75
2023-01-03T05:58:20.143Z,66.95
2023-01-03T06:00:47.558Z,66.13
2023-01-03T06:03:14.947Z,66.51
2023-01-03T06:05:47.864Z,66.27
2023-01-03T06:08:17.940Z,66.59
2023-01-03T06:10:44.858Z,67.37
2023-01-03T06:13:12.155Z,67.50
2023-01-03T06:15:39.117Z,67.93
2023-01-03T06:18:06.052Z,68.56
2023-01-03T06:20:32.944Z,68.48
2023-01-03T06:22:59.931Z,68.02
2023-01-03T06:25:27.331Z,67.78
2023-01-03T06:27:55.934Z,68.06
2023-01-03T06:30:22.842Z,68.11
2023-01-03T06:32:49.814Z,66.79
2023-01-03T06:35:16.748Z,66.63
2023-01-03T06:37:43.725Z,65.96
2023-01-03T06:40:11.200Z,65.66
2023-01-03T06:42:44.783Z,64.83
2023-01-03T06:45:32.169Z,65.07
2023-01-03T06:48:21.864Z,65.11
2023-01-03T06:51:07.055Z,66.16
2023-01-03T06:53:37.888Z,66.67
2023-01-03T06:56:05.169Z,67.24
2023-01-03T06:58:32.559Z,66.92
2023-01-03T07:01:05.247Z,66.72
2023-01-03T07:03:33.354Z,67.52
2023-01-03T07:06:00.531Z,67.05
2023-01-03T07:08:27.484Z,67.12
2023-01-03T07:10:55.100Z,67.78
2023-01-03T07:13:40.344Z,67.18
2023-01-03T07:16:07.849Z,67.49
2023-01-03T07:18:34.857Z,67.30
2023-01-03T07:21:05.500Z,66.49
2023-01-03T07:23:32.510Z,65.39
2023-01-03T07:25:59.401Z,65.07
2023-01-03T07:28:26.388Z,64.32
2023-01-03T07:30:53.320Z,64.00
2023-01-03T07:33:20.244Z,64.38
2023-01-03T07:35:47.219Z,64.59
2023-01-03T07:38:15.062Z,64.12
2023-01-03T07:40:42.029Z,64.18
2023-01-03T07:43:30.814Z,64.09
2023-01-03T07:45:57.985Z,62.74
2023-01-03T07:48:24.952Z,61.83
2023-01-03T07:50:58.020Z,61.38
2023-01-03T07:53:25.543Z,59.78
2023-01-03T07:55:52.830Z,60.01
2023-01-03T07:58:19.844Z,60.45
2023-01-03T08:00:46.728Z,59.73
2023-01-03T08:03:14.551Z,59.01
2023-01-03T08:05:41.592Z,58.20
2023-01-03T08:08:09.231Z,58.17
2023-01-03T08:10:55.295Z,57.31
2023-01-03T08:13:22.563Z,56.34
2023-01-03T08:15:57.032Z,56.59
2023-01-03T08:18:26.431Z,55.40
2023-01-03T08:20:55.687Z,55.92
2023-01-03T08:23:23.943Z,55.18
2023-01-03T08:25:51.543Z,54.91
2023-01-03T08:28:18.935Z,54.86
2023-01-03T08:30:50.298Z,54.59
2023-01-03T08:33:19.305Z,54.65
2023-01-03T08:35:51.125Z,53.93
2023-01-03T08:38:33.018Z,53.43
2023-01-03T08:41:02.002Z,53.92
2023-01-03T08:43:33.518Z,53.88
2023-01-03T08:46:00.467Z,52.33
2023-01-03T08:48:27.455Z,52.78
2023-01-03T08:50:54.384Z,53.17
2023-01-03T08:53:23.060Z,52.11
2023-01-03T08:55:50.517Z,51.95
2023-01-03T08:58:18.483Z,52.36
2023-01-03T09:00:45.429Z,52.29
2023-01-03T09:03:12.518Z,51.74
2023-01-03T09:05:39.664Z,52.53
2023-01-03T09:08:06.835Z,51.73
2023-01-03T09:10:34.749Z,51.80
2023-01-03T09:13:02.679Z,50.64
2023-01-03T09:15:29.877Z,51.44
2023-01-03T09:17:56.749Z,50.77
2023-01-03T09:20:23.716Z,50.84
2023-01-03T09:22:51.014Z,50.79
2023-01-03T09:25:19.067Z,50.07
2023-01-03T09:27:49.092Z,51.14
2023-01-03T09:30:16.847Z,50.26
2023-01-03T09:32:43.995Z,50.07
2023-01-03T09:35:11.192Z,50.12
2023-01-03T09:37:38.606Z,49.68
2023-01-03T09:40:08.338Z,48.58
2023-01-03T09:42:55.357Z,49.43
2023-01-03T10:18:20.073Z,46.08
2023-01-03T10:21:05.202Z,44.88
2023-01-03T10:23:32.109Z,44.75
2023-01-03T10:25:59.793Z,44.13
2023-01-03T10:28:36.425Z,43.27
2023-01-03T10:31:21.461Z,43.58
2023-01-03T10:33:50.085Z,42.00
2023-01-03T10:36:19.592Z,43.44
2023-01-03T10:38:52.898Z,42.97
2023-01-03T10:41:30.830Z,40.99
2023-01-03T10:44:02.874Z,41.78
2023-01-03T10:46:31.239Z,41.39
2023-01-03T10:49:27.345Z,40.73
2023-01-03T10:52:12.383Z,40.41
2023-01-03T10:54:46.031Z,40.07
2023-01-03T10:57:48.525Z,41.64
2023-01-03T11:00:36.673Z,40.67
2023-01-03T11:03:10.391Z,42.22
2023-01-03T11:05:39.632Z,41.52
2023-01-03T11:08:15.899Z,40.86
2023-01-03T11:10:50.596Z,42.81
2023-01-03T11:13:29.623Z,42.17
2023-01-03T11:15:59.394Z,42.17
2023-01-03T11:18:28.114Z,42.01
2023-01-03T11:21:12.138Z,41.70
2023-01-03T11:23:58.233Z,42.78
2023-01-03T11:26:30.794Z,43.36
2023-01-03T11:29:20.744Z,43.14
2023-01-03T11:32:21.870Z,43.31
2023-01-03T11:35:22.007Z,42.33
2023-01-03T11:37:49.344Z,42.85
2023-01-03T11:40:28.569Z,43.66
2023-01-03T11:43:24.183Z,44.25
2023-01-03T11:46:17.394Z,44.26
2023-01-03T11:48:47.377Z,45.29
2023-01-03T11:51:32.452Z,44.00
2023-01-03T11:54:38.091Z,44.50
2023-01-03T11:57:19.132Z,45.59
2023-01-03T12:00:15.451Z,45.54
2023-01-03T12:03:09.929Z,45.49
2023-01-03T12:05:40.953Z,46.42
2023-01-03T12:08:35.027Z,46.82
2023-01-03T12:11:07.908Z,46.27
2023-01-03T12:13:46.565Z,46.21
2023-01-03T12:16:26.358Z,45.68
2023-01-03T12:19:08.456Z,45.16
2023-01-03T12:21:43.753Z,45.63
2023-01-03T12:24:28.837Z,45.75
2023-01-03T12:27:02.364Z,46.43
2023-01-03T12:29:53.152Z,45.21
2023-01-03T12:32:31.707Z,44.98
2023-01-03T12:35:33.084Z,45.20
2023-01-03T12:38:00.008Z,46.03
2023-01-03T12:41:02.176Z,46.68
2023-01-03T12:43:36.263Z,45.99
2023-01-03T12:46:13.099Z,45.85
2023-01-03T12:48:58.809Z,46.94
2023-01-03T12:51:26.945Z,47.04
2023-01-03T12:54:05.699Z,46.38
2023-01-03T12:56:45.406Z,46.38
2023-01-03T12:59:50.482Z,47.91
2023-01-03T13:02:33.454Z,48.51
2023-01-03T13:05:29.450Z,47.25
2023-01-03T13:08:13.973Z,47.01
2023-01-03T13:10:46.827Z,48.44
2023-01-03T13:13:19.455Z,47.13
2023-01-03T13:15:47.971Z,47.93
2023-01-03T13:18:23.719Z,48.39
2023-01-03T13:20:54.702Z,47.69
2023-01-03T13:23:21.700Z,47.06
2023-01-03T13:26:19.654Z,46.53
2023-01-03T13:28:46.862Z,47.06
2023-01-03T13:31:14.627Z,47.03
2023-01-03T13:34:11.010Z,46.87
2023-01-03T13:37:07.088Z,47.23
2023-01-03T13:39:40.950Z,47.08
2023-01-03T13:42:27.804Z,47.65
2023-01-03T13:45:17.549Z,48.62
2023-01-03T13:47:50.417Z,48.19
2023-01-03T13:50:36.103Z,48.11
2023-01-03T13:53:04.481Z,48.18
2023-01-03T13:55:57.159Z,49.85
2023-01-03T13:58:43.123Z,50.02
2023-01-03T14:01:39.094Z,50.58
2023-01-03T14:04:33.894Z,50.33
2023-01-03T14:07:23.518Z,50.52
2023-01-03T14:09:56.416Z,51.64
2023-01-03T14:12:35.530Z,51.47
2023-01-03T14:15:23.046Z,51.42
2023-01-03T14:17:58.914Z,51.43
2023-01-03T14:20:32.330Z,51.91
2023-01-03T14:23:17.104Z,52.01
2023-01-03T14:25:50.893Z,51.74
2023-01-03T14:28:17.808Z,52.02
2023-01-03T14:30:46.513Z,51.68
2023-01-03T14:33:21.793Z,51.50
2023-01-03T14:35:49.293Z,50.91
2023-01-03T14:38:23.838Z,52.30
2023-01-03T14:40:51.698Z,52.75
2023-01-03T14:43:21.615Z,53.90
2023-01-03T14:46:06.360Z,53.06
2023-01-03T14:48:33.724Z,52.63
2023-01-03T14:51:03.021Z,52.95
2023-01-03T14:53:32.767Z,55.36
2023-01-03T14:56:00.486Z,55.81
2023-01-03T14:58:33.507Z,56.64
2023-01-03T15:01:06.648Z,55.94
2023-01-03T15:03:41.199Z,55.60
2023-01-03T15:06:31.468Z,55.12
2023-01-03T15:09:22.487Z,54.60
2023-01-03T15:11:56.793Z,54.51
2023-01-03T15:14:30.068Z,54.77
2023-01-03T15:17:09.848Z,54.13
2023-01-03T15:19:40.395Z,54.59
2023-01-03T15:22:08.965Z,54.89
2023-01-03T15:24:47.872Z,55.13
2023-01-03T15:27:39.453Z,54.92
2023-01-03T15:30:26.724Z,54.97
2023-01-03T15:33:20.413Z,55.10
2023-01-03T15:35:50.791Z,55.86
2023-01-03T15:38:38.661Z,56.13
2023-01-03T15:41:45.136Z,56.70
2023-01-03T15:44:13.719Z,57.11
2023-01-03T15:46:45.693Z,57.04
2023-01-03T15:49:15.487Z,57.18
2023-01-03T15:51:42.713Z,57.85
2023-01-03T15:54:14.310Z,58.30
2023-01-03T15:57:05.541Z,58.23
2023-01-03T15:59:41.290Z,58.51
2023-01-03T16:02:16.998Z,57.99
2023-01-03T16:04:48.701Z,58.55
2023-01-03T16:07:15.966Z,58.38
2023-01-03T16:09:42.977Z,58.45
2023-01-03T16:12:17.196Z,58.56
2023-01-03T16:14:46.803Z,58.79
2023-01-03T16:17:24.297Z,60.68
2023-01-03T16:19:52.606Z,62.54
2023-01-03T16:22:37.047Z,62.40
2023-01-03T16:25:05.550Z,62.60
2023-01-03T16:27:32.740Z,61.17
2023-01-03T16:29:59.693Z,60.82
2023-01-03T16:32:29.922Z,60.24
2023-01-03T16:35:15.830Z,60.03
2023-01-03T16:37:43.255Z,60.48
2023-01-03T16:40:20.979Z,60.83
2023-01-03T16:42:48.505Z,61.29
2023-01-03T16:45:16.388Z,61.71
2023-01-03T16:47:43.956Z,63.95
2023-01-03T16:50:19.848Z,65.47
2023-01-03T16:52:52.477Z,64.90
2023-01-03T16:55:26.904Z,65.60
2023-01-03T16:57:55.425Z,65.65
2023-01-03T17:00:25.347Z,65.54
2023-01-03T17:02:54.655Z,65.60
2023-01-03T17:05:22.663Z,65.53
2023-01-03T17:07:53.035Z,66.06
2023-01-03T17:10:30.370Z,66.67
2023-01-03T17:12:59.041Z,67.97
2023-01-03T17:15:26.583Z,68.59
2023-01-03T17:17:53.462Z,69.24
2023-01-03T17:20:22.235Z,70.78
2023-01-03T17:22:56.545Z,71.18
2023-01-03T17:25:23.963Z,71.11
2023-01-03T17:27:56.065Z,70.99
2023-01-03T17:30:26.572Z,69.58
2023-01-03T17:32:53.956Z,69.60
2023-01-03T17:35:21.161Z,70.47
2023-01-03T17:40:35.424Z,71.92
2023-01-03T17:43:02.914Z,72.04
2023-01-03T17:45:48.878Z,72.60
2023-01-03T17:48:34.296Z,71.95
2023-01-03T17:51:02.104Z,71.13
2023-01-03T17:53:29.650Z,71.33
2023-01-03T17:55:56.788Z,70.94
2023-01-03T17:58:37.967Z,70.51
2023-01-03T18:01:08.304Z,70.95
2023-01-03T18:03:37.115Z,70.92
2023-01-03T18:06:10.820Z,71.47
2023-01-03T18:08:38.021Z,72.48
2023-01-03T18:11:07.553Z,74.63
2023-01-03T18:13:37.183Z,74.39
2023-01-03T18:16:04.733Z,73.85
2023-01-03T18:18:32.362Z,73.60
2023-01-03T18:20:59.518Z,73.53
2023-01-03T18:23:33.114Z,74.13
2023-01-03T18:26:03.478Z,73.84
2023-01-03T18:28:30.690Z,74.35
2023-01-03T18:30:57.963Z,73.86
2023-01-03T18:33:25.955Z,74.21
2023-01-03T18:35:53.509Z,74.87
2023-01-03T18:38:41.532Z,74.59
2023-01-03T18:41:21.834Z,74.81
2023-01-03T18:43:48.753Z,75.03
2023-01-03T18:46:16.773Z,74.93
2023-01-03T18:48:44.074Z,74.59
2023-01-03T18:51:17.001Z,74.33
2023-01-03T18:53:46.610Z,75.33
2023-01-03T18:56:35.784Z,75.80
2023-01-03T18:59:10.093Z,74.91
2023-01-03T19:01:37.188Z,75.33
2023-01-03T19:04:04.299Z,75.64
2023-01-03T19:06:33.488Z,75.21
2023-01-03T19:09:04.714Z,75.71
2023-01-03T19:11:36.707Z,75.41
2023-01-03T19:14:04.445Z,75.70
2023-01-03T19:16:34.003Z,76.39
2023-01-03T19:19:01.525Z,76.79
2023-01-03T19:21:37.846Z,77.03
2023-01-03T19:24:23.656Z,77.28
2023-01-03T19:27:01.677Z,77.26
2023-01-03T19:29:37.060Z,77.47
2023-01-03T19:32:11.534Z,77.47
2023-01-03T19:34:38.455Z,77.80
2023-01-03T19:37:05.513Z,77.77
2023-01-03T19:39:37.373Z,77.70
2023-01-03T19:42:24.961Z,78.23
2023-01-03T19:44:53.088Z,78.24
2023-01-03T19:47:22.941Z,78.52
2023-01-03T19:49:49.941Z,79.13
2023-01-03T19:52:17.725Z,78.74
2023-01-03T19:54:45.070Z,78.72
2023-01-03T19:57:21.273Z,79.83
2023-01-03T19:59:53.169Z,79.41
2023-01-03T20:02:32.433Z,79.44
2023-01-03T20:05:00.304Z,78.77
2023-01-03T20:07:27.441Z,78.59
2023-01-03T20:09:54.407Z,78.53
2023-01-03T20:12:26.590Z,78.60
2023-01-03T20:14:59.953Z,79.37
2023-01-03T20:17:29.712Z,79.46
2023-01-03T20:19:56.635Z,79.45
2023-01-03T20:23:03.239Z,79.14
2023-01-03T20:25:31.672Z,79.19
2023-01-03T20:28:00.123Z,80.13
2023-01-03T20:30:29.635Z,79.68
2023-01-03T20:32:56.867Z,79.32
2023-01-03T20:36:06.974Z,79.88
2023-01-03T20:38:13.049Z,80.19
2023-01-03T20:40:40.042Z,80.94
2023-01-03T20:43:13.555Z,81.35
2023-01-03T20:45:40.834Z,81.22
2023-01-03T20:48:15.886Z,82.03
2023-01-03T20:50:46.425Z,82.39
2023-01-03T20:53:20.764Z,82.06
2023-01-03T20:55:48.632Z,82.08
2023-01-03T20:58:17.384Z,82.48
2023-01-03T21:00:44.466Z,82.85
2023-01-03T21:03:12.039Z,83.10
2023-01-03T21:05:39.341Z,82.99
2023-01-03T21:08:25.697Z,82.65
2023-01-03T21:10:55.497Z,83.87
2023-01-03T21:13:22.766Z,83.03
2023-01-03T21:15:50.315Z,83.54
2023-01-03T21:18:17.784Z,83.32
2023-01-03T21:20:45.296Z,83.48
2023-01-03T21:23:22.754Z,83.48
2023-01-03T21:25:50.442Z,83.29
2023-01-03T21:28:17.465Z,83.80
2023-01-03T21:30:44.433Z,84.01
2023-01-03T21:33:18.754Z,84.29
2023-01-03T21:35:46.398Z,84.99
2023-01-03T21:38:13.405Z,85.03
2023-01-03T21:40:40.324Z,85.44
2023-01-03T21:43:07.532Z,85.78
2023-01-03T21:45:40.177Z,86.37
2023-01-03T21:48:11.138Z,86.23
2023-01-03T21:50:40.271Z,87.05
2023-01-03T21:53:07.667Z,86.39
2023-01-03T21:55:34.723Z,86.27
2023-01-03T21:58:01.666Z,85.37
2023-01-03T22:00:28.677Z,85.98
2023-01-03T22:03:14.377Z,85.05
2023-01-03T22:05:41.484Z,85.66
2023-01-03T22:08:08.752Z,85.71
2023-01-03T22:10:37.223Z,85.57
2023-01-03T22:13:07.154Z,85.74
2023-01-03T22:15:38.788Z,87.05
2023-01-03T22:18:09.128Z,87.08
2023-01-03T22:20:38.735Z,86.93
2023-01-03T22:23:06.983Z,87.46
2023-01-03T22:25:34.560Z,87.41
2023-01-03T22:28:01.409Z,87.51
2023-01-03T22:30:28.400Z,87.41
2023-01-03T22:32:58.836Z,87.36
2023-01-03T22:35:25.866Z,87.43
2023-01-03T22:37:55.783Z,87.66
2023-01-03T22:40:22.689Z,88.65
2023-01-03T22:42:49.673Z,88.85
2023-01-03T22:45:17.031Z,88.52
2023-01-03T22:47:43.926Z,88.34
2023-01-03T22:50:11.742Z,88.23
2023-01-03T22:52:40.158Z,88.65
2023-01-03T22:55:07.891Z,89.09
2023-01-03T22:57:34.857Z,89.06
2023-01-03T23:00:02.386Z,88.69
2023-01-03T23:02:39.141Z,89.17
2023-01-03T23:05:08.421Z,88.12
2023-01-03T23:07:35.351Z,88.99
2023-01-03T23:10:02.353Z,88.21
2023-01-03T23:12:48.100Z,88.94
2023-01-03T23:15:15.005Z,88.32
2023-01-03T23:17:57.017Z,88.85
2023-01-03T23:20:36.259Z,89.53
2023-01-03T23:23:04.293Z,89.80
2023-01-03T23:25:33.279Z,89.11
2023-01-03T23:28:00.199Z,89.38
2023-01-03T23:30:27.563Z,89.15
2023-01-03T23:32:54.558Z,89.51
2023-01-03T23:35:21.654Z,90.07
2023-01-03T23:37:48.656Z,89.51
2023-01-03T23:40:15.764Z,89.51
2023-01-03T23:42:42.794Z,89.41
2023-01-03T23:45:10.112Z,89.42
2023-01-03T23:47:37.075Z,88.63
2023-01-03T23:50:04.217Z,89.17
2023-01-03T23:52:32.840Z,89.29
2023-01-03T23:55:02.579Z,88.87
2023-01-03T23:57:33.872Z,89.18
